sensor_id;sensor_type;location;lat;lon;timestamp;temperature;humidity
24426;DHT22;12611;44.446;26.000;2022-08-30T00:02:27;26.30;67.50
24426;DHT22;12611;44.446;26.000;2022-08-30T00:04:56;26.20;67.50
24426;DHT22;12611;44.446;26.000;2022-08-30T00:07:28;26.20;67.90
24426;DHT22;12611;44.446;26.000;2022-08-30T00:10:06;26.20;68.30
24426;DHT22;12611;44.446;26.000;2022-08-30T00:12:37;26.10;68.30
24426;DHT22;12611;44.446;26.000;2022-08-30T00:15:06;26.10;68.40
24426;DHT22;12611;44.446;26.000;2022-08-30T00:17:38;26.10;68.60
24426;DHT22;12611;44.446;26.000;2022-08-30T00:20:10;26.00;68.80
24426;DHT22;12611;44.446;26.000;2022-08-30T00:22:40;26.00;69.00
24426;DHT22;12611;44.446;26.000;2022-08-30T00:25:09;26.00;69.40
24426;DHT22;12611;44.446;26.000;2022-08-30T00:27:38;26.00;69.90
24426;DHT22;12611;44.446;26.000;2022-08-30T00:30:09;26.00;69.70
24426;DHT22;12611;44.446;26.000;2022-08-30T00:32:38;25.90;70.00
24426;DHT22;12611;44.446;26.000;2022-08-30T00:35:08;25.90;70.20
24426;DHT22;12611;44.446;26.000;2022-08-30T00:37:37;25.90;70.40
24426;DHT22;12611;44.446;26.000;2022-08-30T00:40:09;25.80;70.20
24426;DHT22;12611;44.446;26.000;2022-08-30T00:42:38;25.80;70.20
24426;DHT22;12611;44.446;26.000;2022-08-30T00:45:12;25.80;70.20
24426;DHT22;12611;44.446;26.000;2022-08-30T00:47:43;25.80;70.60
24426;DHT22;12611;44.446;26.000;2022-08-30T00:50:14;25.80;70.90
24426;DHT22;12611;44.446;26.000;2022-08-30T00:52:45;25.80;70.80
24426;DHT22;12611;44.446;26.000;2022-08-30T00:55:17;25.70;70.80
24426;DHT22;12611;44.446;26.000;2022-08-30T00:57:47;25.70;70.80
24426;DHT22;12611;44.446;26.000;2022-08-30T01:00:18;25.70;70.80
24426;DHT22;12611;44.446;26.000;2022-08-30T01:02:47;25.60;70.70
24426;DHT22;12611;44.446;26.000;2022-08-30T01:05:18;25.60;70.80
24426;DHT22;12611;44.446;26.000;2022-08-30T01:07:48;25.60;70.90
24426;DHT22;12611;44.446;26.000;2022-08-30T01:10:18;25.60;70.90
24426;DHT22;12611;44.446;26.000;2022-08-30T01:12:47;25.60;71.20
24426;DHT22;12611;44.446;26.000;2022-08-30T01:15:16;25.60;71.30
24426;DHT22;12611;44.446;26.000;2022-08-30T01:17:47;25.60;71.40
24426;DHT22;12611;44.446;26.000;2022-08-30T01:20:20;25.60;71.40
24426;DHT22;12611;44.446;26.000;2022-08-30T01:23:09;25.50;71.50
24426;DHT22;12611;44.446;26.000;2022-08-30T01:25:39;25.50;71.30
24426;DHT22;12611;44.446;26.000;2022-08-30T01:28:10;25.40;71.40
24426;DHT22;12611;44.446;26.000;2022-08-30T01:30:41;25.40;71.30
24426;DHT22;12611;44.446;26.000;2022-08-30T01:33:11;25.40;71.40
24426;DHT22;12611;44.446;26.000;2022-08-30T01:35:46;25.40;71.30
24426;DHT22;12611;44.446;26.000;2022-08-30T01:38:17;25.40;71.40
24426;DHT22;12611;44.446;26.000;2022-08-30T01:40:48;25.40;71.30
24426;DHT22;12611;44.446;26.000;2022-08-30T01:43:17;25.40;71.10
24426;DHT22;12611;44.446;26.000;2022-08-30T01:45:46;25.40;71.10
24426;DHT22;12611;44.446;26.000;2022-08-30T01:48:15;25.40;71.10
24426;DHT22;12611;44.446;26.000;2022-08-30T01:50:43;25.40;71.00
24426;DHT22;12611;44.446;26.000;2022-08-30T01:53:12;25.40;71.10
24426;DHT22;12611;44.446;26.000;2022-08-30T01:55:42;25.40;71.10
24426;DHT22;12611;44.446;26.000;2022-08-30T01:58:11;25.40;71.20
24426;DHT22;12611;44.446;26.000;2022-08-30T02:00:39;25.40;71.20
24426;DHT22;12611;44.446;26.000;2022-08-30T02:03:08;25.40;71.10
24426;DHT22;12611;44.446;26.000;2022-08-30T02:05:36;25.40;71.10
24426;DHT22;12611;44.446;26.000;2022-08-30T02:08:05;25.40;71.10
24426;DHT22;12611;44.446;26.000;2022-08-30T02:10:33;25.40;71.10
24426;DHT22;12611;44.446;26.000;2022-08-30T02:13:03;25.40;71.10
24426;DHT22;12611;44.446;26.000;2022-08-30T02:15:32;25.30;71.20
24426;DHT22;12611;44.446;26.000;2022-08-30T02:18:07;25.30;71.60
24426;DHT22;12611;44.446;26.000;2022-08-30T02:20:38;25.30;72.10
24426;DHT22;12611;44.446;26.000;2022-08-30T02:23:06;25.20;72.60
24426;DHT22;12611;44.446;26.000;2022-08-30T02:25:35;25.20;72.40
24426;DHT22;12611;44.446;26.000;2022-08-30T02:28:05;25.10;73.00
24426;DHT22;12611;44.446;26.000;2022-08-30T02:30:34;25.00;73.00
24426;DHT22;12611;44.446;26.000;2022-08-30T02:33:03;25.00;72.90
24426;DHT22;12611;44.446;26.000;2022-08-30T02:35:32;25.00;72.60
24426;DHT22;12611;44.446;26.000;2022-08-30T02:38:00;25.00;72.60
24426;DHT22;12611;44.446;26.000;2022-08-30T02:40:29;25.00;72.70
24426;DHT22;12611;44.446;26.000;2022-08-30T02:42:58;24.90;72.60
24426;DHT22;12611;44.446;26.000;2022-08-30T02:45:28;24.90;72.50
24426;DHT22;12611;44.446;26.000;2022-08-30T02:47:57;24.90;72.50
24426;DHT22;12611;44.446;26.000;2022-08-30T02:50:25;24.90;72.20
24426;DHT22;12611;44.446;26.000;2022-08-30T02:52:55;24.90;72.10
24426;DHT22;12611;44.446;26.000;2022-08-30T02:55:23;24.90;71.90
24426;DHT22;12611;44.446;26.000;2022-08-30T02:57:52;24.90;71.80
24426;DHT22;12611;44.446;26.000;2022-08-30T03:00:20;24.90;71.80
24426;DHT22;12611;44.446;26.000;2022-08-30T03:02:50;24.90;71.70
24426;DHT22;12611;44.446;26.000;2022-08-30T03:05:19;24.90;71.60
24426;DHT22;12611;44.446;26.000;2022-08-30T03:07:49;24.90;71.50
24426;DHT22;12611;44.446;26.000;2022-08-30T03:10:18;24.90;71.40
24426;DHT22;12611;44.446;26.000;2022-08-30T03:12:46;25.00;71.10
24426;DHT22;12611;44.446;26.000;2022-08-30T03:15:15;25.00;71.00
24426;DHT22;12611;44.446;26.000;2022-08-30T03:17:44;24.90;70.70
24426;DHT22;12611;44.446;26.000;2022-08-30T03:20:14;24.90;70.70
24426;DHT22;12611;44.446;26.000;2022-08-30T03:22:43;24.90;70.50
24426;DHT22;12611;44.446;26.000;2022-08-30T03:25:12;25.00;70.40
24426;DHT22;12611;44.446;26.000;2022-08-30T03:27:41;25.00;70.30
24426;DHT22;12611;44.446;26.000;2022-08-30T03:30:10;25.00;71.00
24426;DHT22;12611;44.446;26.000;2022-08-30T03:32:40;25.00;70.20
24426;DHT22;12611;44.446;26.000;2022-08-30T03:35:09;25.00;70.00
24426;DHT22;12611;44.446;26.000;2022-08-30T03:37:43;25.00;69.70
24426;DHT22;12611;44.446;26.000;2022-08-30T03:40:14;25.00;69.40
24426;DHT22;12611;44.446;26.000;2022-08-30T03:42:44;25.00;69.10
24426;DHT22;12611;44.446;26.000;2022-08-30T03:45:15;25.00;68.90
24426;DHT22;12611;44.446;26.000;2022-08-30T03:47:44;25.00;68.80
24426;DHT22;12611;44.446;26.000;2022-08-30T03:50:14;25.10;68.80
24426;DHT22;12611;44.446;26.000;2022-08-30T03:52:44;25.10;68.70
24426;DHT22;12611;44.446;26.000;2022-08-30T03:55:12;25.20;68.80
24426;DHT22;12611;44.446;26.000;2022-08-30T03:57:41;25.20;68.80
24426;DHT22;12611;44.446;26.000;2022-08-30T04:00:11;25.20;68.90
24426;DHT22;12611;44.446;26.000;2022-08-30T04:02:49;25.20;68.90
24426;DHT22;12611;44.446;26.000;2022-08-30T04:05:22;25.20;69.00
24426;DHT22;12611;44.446;26.000;2022-08-30T04:07:54;25.20;69.00
24426;DHT22;12611;44.446;26.000;2022-08-30T04:10:23;25.30;69.10
24426;DHT22;12611;44.446;26.000;2022-08-30T04:12:52;25.30;69.00
24426;DHT22;12611;44.446;26.000;2022-08-30T04:15:21;25.30;68.90
24426;DHT22;12611;44.446;26.000;2022-08-30T04:17:49;25.40;69.10
24426;DHT22;12611;44.446;26.000;2022-08-30T04:20:20;25.40;69.10
24426;DHT22;12611;44.446;26.000;2022-08-30T04:22:50;25.50;69.30
24426;DHT22;12611;44.446;26.000;2022-08-30T04:25:20;25.50;69.30
24426;DHT22;12611;44.446;26.000;2022-08-30T04:27:49;25.50;69.30
24426;DHT22;12611;44.446;26.000;2022-08-30T04:30:18;25.60;69.50
24426;DHT22;12611;44.446;26.000;2022-08-30T04:32:46;25.60;69.40
24426;DHT22;12611;44.446;26.000;2022-08-30T04:35:17;25.60;69.50
24426;DHT22;12611;44.446;26.000;2022-08-30T04:37:46;25.70;69.60
24426;DHT22;12611;44.446;26.000;2022-08-30T04:40:15;25.60;69.50
24426;DHT22;12611;44.446;26.000;2022-08-30T04:42:46;25.70;69.40
24426;DHT22;12611;44.446;26.000;2022-08-30T04:45:15;25.70;69.40
24426;DHT22;12611;44.446;26.000;2022-08-30T04:47:44;25.80;69.50
24426;DHT22;12611;44.446;26.000;2022-08-30T04:50:15;25.80;69.40
24426;DHT22;12611;44.446;26.000;2022-08-30T04:52:47;25.90;69.40
24426;DHT22;12611;44.446;26.000;2022-08-30T04:55:16;25.90;69.40
24426;DHT22;12611;44.446;26.000;2022-08-30T04:57:47;25.90;69.50
24426;DHT22;12611;44.446;26.000;2022-08-30T05:00:18;26.00;69.80
24426;DHT22;12611;44.446;26.000;2022-08-30T05:02:48;26.00;69.60
24426;DHT22;12611;44.446;26.000;2022-08-30T05:05:20;26.10;69.60
24426;DHT22;12611;44.446;26.000;2022-08-30T05:08:07;26.10;69.60
24426;DHT22;12611;44.446;26.000;2022-08-30T05:10:37;26.10;69.50
24426;DHT22;12611;44.446;26.000;2022-08-30T05:13:09;26.20;69.50
24426;DHT22;12611;44.446;26.000;2022-08-30T05:15:38;26.20;69.40
24426;DHT22;12611;44.446;26.000;2022-08-30T05:18:07;26.20;69.40
24426;DHT22;12611;44.446;26.000;2022-08-30T05:20:43;26.30;69.40
24426;DHT22;12611;44.446;26.000;2022-08-30T05:23:13;26.30;69.40
24426;DHT22;12611;44.446;26.000;2022-08-30T05:25:42;26.40;69.30
24426;DHT22;12611;44.446;26.000;2022-08-30T05:28:13;26.40;69.40
24426;DHT22;12611;44.446;26.000;2022-08-30T05:30:45;26.40;69.20
24426;DHT22;12611;44.446;26.000;2022-08-30T05:33:13;26.40;69.30
24426;DHT22;12611;44.446;26.000;2022-08-30T05:35:42;26.50;69.20
24426;DHT22;12611;44.446;26.000;2022-08-30T05:38:10;26.50;69.10
24426;DHT22;12611;44.446;26.000;2022-08-30T05:40:40;26.50;69.10
24426;DHT22;12611;44.446;26.000;2022-08-30T05:43:08;26.60;69.10
24426;DHT22;12611;44.446;26.000;2022-08-30T05:45:41;26.70;69.20
24426;DHT22;12611;44.446;26.000;2022-08-30T05:48:10;26.70;69.10
24426;DHT22;12611;44.446;26.000;2022-08-30T05:50:39;26.70;68.90
24426;DHT22;12611;44.446;26.000;2022-08-30T05:53:07;26.70;68.80
24426;DHT22;12611;44.446;26.000;2022-08-30T05:55:36;26.80;68.80
24426;DHT22;12611;44.446;26.000;2022-08-30T05:58:05;26.80;68.80
24426;DHT22;12611;44.446;26.000;2022-08-30T06:00:34;26.90;68.90
24426;DHT22;12611;44.446;26.000;2022-08-30T06:03:05;27.00;68.80
24426;DHT22;12611;44.446;26.000;2022-08-30T06:05:36;27.00;68.70
24426;DHT22;12611;44.446;26.000;2022-08-30T06:08:05;27.00;68.50
24426;DHT22;12611;44.446;26.000;2022-08-30T06:10:37;27.00;68.50
24426;DHT22;12611;44.446;26.000;2022-08-30T06:13:06;27.00;68.60
24426;DHT22;12611;44.446;26.000;2022-08-30T06:15:34;27.10;68.60
24426;DHT22;12611;44.446;26.000;2022-08-30T06:18:07;27.10;68.50
24426;DHT22;12611;44.446;26.000;2022-08-30T06:20:39;27.10;68.40
24426;DHT22;12611;44.446;26.000;2022-08-30T06:23:08;27.20;68.50
24426;DHT22;12611;44.446;26.000;2022-08-30T06:25:38;27.20;68.30
24426;DHT22;12611;44.446;26.000;2022-08-30T06:28:08;27.30;68.40
24426;DHT22;12611;44.446;26.000;2022-08-30T06:30:39;27.30;68.30
24426;DHT22;12611;44.446;26.000;2022-08-30T06:33:09;27.40;68.30
24426;DHT22;12611;44.446;26.000;2022-08-30T06:35:38;27.40;68.10
24426;DHT22;12611;44.446;26.000;2022-08-30T06:38:25;27.50;68.20
24426;DHT22;12611;44.446;26.000;2022-08-30T06:40:54;27.60;68.30
24426;DHT22;12611;44.446;26.000;2022-08-30T06:43:22;27.70;68.30
24426;DHT22;12611;44.446;26.000;2022-08-30T06:45:51;27.70;68.20
24426;DHT22;12611;44.446;26.000;2022-08-30T06:48:22;27.80;68.20
24426;DHT22;12611;44.446;26.000;2022-08-30T06:50:52;27.80;67.80
24426;DHT22;12611;44.446;26.000;2022-08-30T06:53:21;27.90;67.70
24426;DHT22;12611;44.446;26.000;2022-08-30T06:55:55;28.00;67.00
24426;DHT22;12611;44.446;26.000;2022-08-30T06:58:24;28.00;66.90
24426;DHT22;12611;44.446;26.000;2022-08-30T07:00:53;28.10;66.80
24426;DHT22;12611;44.446;26.000;2022-08-30T07:03:23;28.10;66.40
24426;DHT22;12611;44.446;26.000;2022-08-30T07:05:54;28.20;66.50
24426;DHT22;12611;44.446;26.000;2022-08-30T07:08:23;28.30;66.50
24426;DHT22;12611;44.446;26.000;2022-08-30T07:10:53;28.40;66.30
24426;DHT22;12611;44.446;26.000;2022-08-30T07:13:22;28.40;66.30
24426;DHT22;12611;44.446;26.000;2022-08-30T07:15:51;28.50;66.20
24426;DHT22;12611;44.446;26.000;2022-08-30T07:18:20;28.50;65.90
24426;DHT22;12611;44.446;26.000;2022-08-30T07:21:09;28.60;65.80
24426;DHT22;12611;44.446;26.000;2022-08-30T07:23:37;28.70;65.80
24426;DHT22;12611;44.446;26.000;2022-08-30T07:26:09;28.70;65.60
24426;DHT22;12611;44.446;26.000;2022-08-30T07:28:39;28.80;65.60
24426;DHT22;12611;44.446;26.000;2022-08-30T07:31:09;28.90;65.50
24426;DHT22;12611;44.446;26.000;2022-08-30T07:33:38;28.90;65.20
24426;DHT22;12611;44.446;26.000;2022-08-30T07:36:09;28.90;65.10
24426;DHT22;12611;44.446;26.000;2022-08-30T07:38:38;29.00;64.70
24426;DHT22;12611;44.446;26.000;2022-08-30T07:41:07;29.10;64.80
24426;DHT22;12611;44.446;26.000;2022-08-30T07:43:36;29.10;64.70
24426;DHT22;12611;44.446;26.000;2022-08-30T07:46:07;29.20;64.30
24426;DHT22;12611;44.446;26.000;2022-08-30T07:48:36;29.20;64.30
24426;DHT22;12611;44.446;26.000;2022-08-30T07:51:12;29.30;64.10
24426;DHT22;12611;44.446;26.000;2022-08-30T07:53:41;29.30;64.10
24426;DHT22;12611;44.446;26.000;2022-08-30T07:56:09;29.40;64.10
24426;DHT22;12611;44.446;26.000;2022-08-30T07:58:38;29.50;64.10
24426;DHT22;12611;44.446;26.000;2022-08-30T08:01:11;29.50;63.80
24426;DHT22;12611;44.446;26.000;2022-08-30T08:03:42;29.50;63.50
24426;DHT22;12611;44.446;26.000;2022-08-30T08:06:13;29.60;63.30
24426;DHT22;12611;44.446;26.000;2022-08-30T08:08:43;29.70;63.20
24426;DHT22;12611;44.446;26.000;2022-08-30T08:11:14;29.70;63.10
24426;DHT22;12611;44.446;26.000;2022-08-30T08:13:45;29.80;63.30
24426;DHT22;12611;44.446;26.000;2022-08-30T08:16:21;29.80;63.10
24426;DHT22;12611;44.446;26.000;2022-08-30T08:18:53;29.90;63.00
24426;DHT22;12611;44.446;26.000;2022-08-30T08:21:24;29.90;62.70
24426;DHT22;12611;44.446;26.000;2022-08-30T08:23:53;30.00;62.60
24426;DHT22;12611;44.446;26.000;2022-08-30T08:26:23;30.00;62.30
24426;DHT22;12611;44.446;26.000;2022-08-30T08:28:55;30.10;62.10
24426;DHT22;12611;44.446;26.000;2022-08-30T08:31:26;30.10;61.70
24426;DHT22;12611;44.446;26.000;2022-08-30T08:34:00;30.20;61.20
24426;DHT22;12611;44.446;26.000;2022-08-30T08:36:34;30.20;61.10
24426;DHT22;12611;44.446;26.000;2022-08-30T08:39:03;30.30;60.80
24426;DHT22;12611;44.446;26.000;2022-08-30T08:41:47;30.30;60.50
24426;DHT22;12611;44.446;26.000;2022-08-30T08:44:26;30.30;60.10
24426;DHT22;12611;44.446;26.000;2022-08-30T08:47:09;30.40;60.40
24426;DHT22;12611;44.446;26.000;2022-08-30T08:49:42;30.40;60.20
24426;DHT22;12611;44.446;26.000;2022-08-30T08:52:17;30.50;60.40
24426;DHT22;12611;44.446;26.000;2022-08-30T08:55:09;30.50;60.30
24426;DHT22;12611;44.446;26.000;2022-08-30T08:57:39;30.60;59.80
24426;DHT22;12611;44.446;26.000;2022-08-30T09:00:10;30.70;59.90
24426;DHT22;12611;44.446;26.000;2022-08-30T09:02:45;30.70;59.70
24426;DHT22;12611;44.446;26.000;2022-08-30T09:08:14;30.80;59.40
24426;DHT22;12611;44.446;26.000;2022-08-30T09:10:47;30.90;59.30
24426;DHT22;12611;44.446;26.000;2022-08-30T09:13:18;30.90;58.90
24426;DHT22;12611;44.446;26.000;2022-08-30T09:15:57;31.00;58.90
24426;DHT22;12611;44.446;26.000;2022-08-30T09:18:41;31.10;58.90
24426;DHT22;12611;44.446;26.000;2022-08-30T09:21:12;31.10;57.90
24426;DHT22;12611;44.446;26.000;2022-08-30T09:23:48;31.10;58.20
24426;DHT22;12611;44.446;26.000;2022-08-30T09:26:28;31.20;58.10
24426;DHT22;12611;44.446;26.000;2022-08-30T09:28:56;31.20;58.00
24426;DHT22;12611;44.446;26.000;2022-08-30T09:31:29;31.30;57.70
24426;DHT22;12611;44.446;26.000;2022-08-30T09:34:00;31.40;57.50
24426;DHT22;12611;44.446;26.000;2022-08-30T09:36:34;31.40;57.50
24426;DHT22;12611;44.446;26.000;2022-08-30T09:39:16;31.50;57.00
24426;DHT22;12611;44.446;26.000;2022-08-30T09:41:46;31.50;56.60
24426;DHT22;12611;44.446;26.000;2022-08-30T09:44:17;31.50;56.70
24426;DHT22;12611;44.446;26.000;2022-08-30T09:46:49;31.60;56.90
24426;DHT22;12611;44.446;26.000;2022-08-30T09:49:28;31.60;56.70
24426;DHT22;12611;44.446;26.000;2022-08-30T09:52:04;31.70;56.50
24426;DHT22;12611;44.446;26.000;2022-08-30T09:54:43;31.70;56.20
24426;DHT22;12611;44.446;26.000;2022-08-30T09:57:23;31.80;56.00
24426;DHT22;12611;44.446;26.000;2022-08-30T10:00:03;31.80;55.90
24426;DHT22;12611;44.446;26.000;2022-08-30T10:02:56;31.80;55.70
24426;DHT22;12611;44.446;26.000;2022-08-30T10:05:33;31.80;55.20
24426;DHT22;12611;44.446;26.000;2022-08-30T10:08:11;31.90;55.30
24426;DHT22;12611;44.446;26.000;2022-08-30T10:10:50;32.00;55.50
24426;DHT22;12611;44.446;26.000;2022-08-30T10:13:46;32.00;54.40
24426;DHT22;12611;44.446;26.000;2022-08-30T10:16:29;32.00;54.10
24426;DHT22;12611;44.446;26.000;2022-08-30T10:19:16;32.10;54.30
24426;DHT22;12611;44.446;26.000;2022-08-30T10:21:51;32.10;53.80
24426;DHT22;12611;44.446;26.000;2022-08-30T10:24:25;32.20;53.60
24426;DHT22;12611;44.446;26.000;2022-08-30T10:27:04;32.20;53.10
24426;DHT22;12611;44.446;26.000;2022-08-30T10:29:40;32.30;53.20
24426;DHT22;12611;44.446;26.000;2022-08-30T10:32:18;32.30;53.20
24426;DHT22;12611;44.446;26.000;2022-08-30T10:34:50;32.40;53.00
24426;DHT22;12611;44.446;26.000;2022-08-30T10:37:24;32.40;52.70
24426;DHT22;12611;44.446;26.000;2022-08-30T10:39:54;32.50;52.70
24426;DHT22;12611;44.446;26.000;2022-08-30T10:42:29;32.50;52.60
24426;DHT22;12611;44.446;26.000;2022-08-30T10:45:10;32.50;52.30
24426;DHT22;12611;44.446;26.000;2022-08-30T10:47:46;32.50;52.50
24426;DHT22;12611;44.446;26.000;2022-08-30T10:50:21;32.60;52.50
24426;DHT22;12611;44.446;26.000;2022-08-30T10:52:55;32.60;52.60
24426;DHT22;12611;44.446;26.000;2022-08-30T10:55:28;32.70;52.60
24426;DHT22;12611;44.446;26.000;2022-08-30T10:58:00;32.70;52.50
24426;DHT22;12611;44.446;26.000;2022-08-30T11:00:34;32.80;52.40
24426;DHT22;12611;44.446;26.000;2022-08-30T11:03:33;32.80;51.30
24426;DHT22;12611;44.446;26.000;2022-08-30T11:06:17;32.90;51.10
24426;DHT22;12611;44.446;26.000;2022-08-30T11:09:10;32.90;51.40
24426;DHT22;12611;44.446;26.000;2022-08-30T11:11:57;32.90;51.50
24426;DHT22;12611;44.446;26.000;2022-08-30T11:14:30;32.90;51.20
24426;DHT22;12611;44.446;26.000;2022-08-30T11:16:59;33.00;50.80
24426;DHT22;12611;44.446;26.000;2022-08-30T11:19:37;33.00;50.20
24426;DHT22;12611;44.446;26.000;2022-08-30T11:22:11;33.00;49.80
24426;DHT22;12611;44.446;26.000;2022-08-30T11:25:00;33.10;50.20
24426;DHT22;12611;44.446;26.000;2022-08-30T11:27:46;33.10;50.00
24426;DHT22;12611;44.446;26.000;2022-08-30T11:30:50;33.20;50.20
24426;DHT22;12611;44.446;26.000;2022-08-30T11:33:43;33.20;50.00
24426;DHT22;12611;44.446;26.000;2022-08-30T11:40:04;33.30;50.50
24426;DHT22;12611;44.446;26.000;2022-08-30T11:42:42;33.30;50.20
24426;DHT22;12611;44.446;26.000;2022-08-30T11:45:42;33.40;50.40
24426;DHT22;12611;44.446;26.000;2022-08-30T11:54:46;33.60;50.10
24426;DHT22;12611;44.446;26.000;2022-08-30T11:57:25;33.60;49.80
24426;DHT22;12611;44.446;26.000;2022-08-30T12:00:04;33.60;49.70
24426;DHT22;12611;44.446;26.000;2022-08-30T12:02:54;33.60;49.50
24426;DHT22;12611;44.446;26.000;2022-08-30T12:05:51;33.70;50.40
24426;DHT22;12611;44.446;26.000;2022-08-30T12:08:50;33.80;49.90
24426;DHT22;12611;44.446;26.000;2022-08-30T12:12:00;33.80;50.00
24426;DHT22;12611;44.446;26.000;2022-08-30T12:14:44;33.90;50.00
24426;DHT22;12611;44.446;26.000;2022-08-30T12:17:23;33.90;49.40
24426;DHT22;12611;44.446;26.000;2022-08-30T12:20:24;34.00;49.60
24426;DHT22;12611;44.446;26.000;2022-08-30T12:22:55;34.00;49.80
24426;DHT22;12611;44.446;26.000;2022-08-30T12:25:29;34.00;49.90
24426;DHT22;12611;44.446;26.000;2022-08-30T12:28:09;34.10;50.00
24426;DHT22;12611;44.446;26.000;2022-08-30T12:30:38;34.10;49.80
24426;DHT22;12611;44.446;26.000;2022-08-30T12:33:10;34.10;49.90
24426;DHT22;12611;44.446;26.000;2022-08-30T12:35:42;34.10;49.90
24426;DHT22;12611;44.446;26.000;2022-08-30T12:38:16;34.10;49.30
24426;DHT22;12611;44.446;26.000;2022-08-30T12:41:00;34.20;49.50
24426;DHT22;12611;44.446;26.000;2022-08-30T12:43:35;34.20;49.70
24426;DHT22;12611;44.446;26.000;2022-08-30T12:46:11;34.30;50.10
24426;DHT22;12611;44.446;26.000;2022-08-30T12:48:43;34.30;49.10
24426;DHT22;12611;44.446;26.000;2022-08-30T12:51:26;34.30;49.00
24426;DHT22;12611;44.446;26.000;2022-08-30T12:54:04;34.30;48.90
24426;DHT22;12611;44.446;26.000;2022-08-30T12:56:55;34.40;49.00
24426;DHT22;12611;44.446;26.000;2022-08-30T12:59:50;34.40;48.90
24426;DHT22;12611;44.446;26.000;2022-08-30T13:02:36;34.40;48.70
24426;DHT22;12611;44.446;26.000;2022-08-30T13:05:28;34.40;48.80
24426;DHT22;12611;44.446;26.000;2022-08-30T13:10:57;34.40;49.00
24426;DHT22;12611;44.446;26.000;2022-08-30T13:13:39;34.40;49.10
24426;DHT22;12611;44.446;26.000;2022-08-30T13:16:25;34.40;49.00
24426;DHT22;12611;44.446;26.000;2022-08-30T13:19:18;34.50;48.90
24426;DHT22;12611;44.446;26.000;2022-08-30T13:21:54;34.50;48.60
24426;DHT22;12611;44.446;26.000;2022-08-30T13:24:23;34.50;48.70
24426;DHT22;12611;44.446;26.000;2022-08-30T13:26:53;34.50;48.80
24426;DHT22;12611;44.446;26.000;2022-08-30T13:29:26;34.40;48.70
24426;DHT22;12611;44.446;26.000;2022-08-30T13:31:56;34.40;48.30
24426;DHT22;12611;44.446;26.000;2022-08-30T13:34:25;34.30;48.10
24426;DHT22;12611;44.446;26.000;2022-08-30T13:36:55;34.30;48.10
24426;DHT22;12611;44.446;26.000;2022-08-30T13:39:24;34.30;48.90
24426;DHT22;12611;44.446;26.000;2022-08-30T13:41:53;34.20;48.20
24426;DHT22;12611;44.446;26.000;2022-08-30T13:44:43;34.10;48.20
24426;DHT22;12611;44.446;26.000;2022-08-30T13:47:14;34.10;48.30
24426;DHT22;12611;44.446;26.000;2022-08-30T13:50:01;34.00;48.90
24426;DHT22;12611;44.446;26.000;2022-08-30T13:52:29;34.00;48.40
24426;DHT22;12611;44.446;26.000;2022-08-30T13:54:58;33.90;48.50
24426;DHT22;12611;44.446;26.000;2022-08-30T13:57:28;33.90;48.50
24426;DHT22;12611;44.446;26.000;2022-08-30T14:00:18;33.80;48.50
24426;DHT22;12611;44.446;26.000;2022-08-30T14:02:49;33.80;48.60
24426;DHT22;12611;44.446;26.000;2022-08-30T14:05:22;33.70;48.70
24426;DHT22;12611;44.446;26.000;2022-08-30T14:08:12;33.70;48.90
24426;DHT22;12611;44.446;26.000;2022-08-30T14:11:01;33.60;49.00
24426;DHT22;12611;44.446;26.000;2022-08-30T14:13:30;33.50;49.30
24426;DHT22;12611;44.446;26.000;2022-08-30T14:16:04;33.50;49.40
24426;DHT22;12611;44.446;26.000;2022-08-30T14:18:53;33.40;49.50
24426;DHT22;12611;44.446;26.000;2022-08-30T14:21:26;33.30;49.50
24426;DHT22;12611;44.446;26.000;2022-08-30T14:23:56;33.20;49.10
24426;DHT22;12611;44.446;26.000;2022-08-30T14:26:28;33.10;49.10
24426;DHT22;12611;44.446;26.000;2022-08-30T14:29:02;33.10;48.60
24426;DHT22;12611;44.446;26.000;2022-08-30T14:31:37;33.00;48.30
24426;DHT22;12611;44.446;26.000;2022-08-30T14:34:07;32.90;48.20
24426;DHT22;12611;44.446;26.000;2022-08-30T14:36:39;32.80;48.40
24426;DHT22;12611;44.446;26.000;2022-08-30T14:39:10;32.70;48.50
24426;DHT22;12611;44.446;26.000;2022-08-30T14:41:42;32.70;48.90
24426;DHT22;12611;44.446;26.000;2022-08-30T14:44:11;32.60;49.00
24426;DHT22;12611;44.446;26.000;2022-08-30T14:46:41;32.50;49.30
24426;DHT22;12611;44.446;26.000;2022-08-30T14:49:11;32.50;50.20
24426;DHT22;12611;44.446;26.000;2022-08-30T14:51:40;32.40;50.50
24426;DHT22;12611;44.446;26.000;2022-08-30T14:54:09;32.40;50.80
24426;DHT22;12611;44.446;26.000;2022-08-30T14:56:38;32.30;51.00
24426;DHT22;12611;44.446;26.000;2022-08-30T14:59:07;32.30;51.30
24426;DHT22;12611;44.446;26.000;2022-08-30T15:01:41;32.20;51.30
24426;DHT22;12611;44.446;26.000;2022-08-30T15:04:10;32.10;51.30
24426;DHT22;12611;44.446;26.000;2022-08-30T15:06:41;32.10;51.50
24426;DHT22;12611;44.446;26.000;2022-08-30T15:09:13;32.00;51.40
24426;DHT22;12611;44.446;26.000;2022-08-30T15:11:41;32.00;51.50
24426;DHT22;12611;44.446;26.000;2022-08-30T15:14:13;31.90;51.40
24426;DHT22;12611;44.446;26.000;2022-08-30T15:16:43;31.90;51.60
24426;DHT22;12611;44.446;26.000;2022-08-30T15:19:12;31.90;51.80
24426;DHT22;12611;44.446;26.000;2022-08-30T15:21:43;31.80;51.90
24426;DHT22;12611;44.446;26.000;2022-08-30T15:24:16;31.80;52.00
24426;DHT22;12611;44.446;26.000;2022-08-30T15:26:50;31.70;52.20
24426;DHT22;12611;44.446;26.000;2022-08-30T15:29:24;31.60;52.40
24426;DHT22;12611;44.446;26.000;2022-08-30T15:32:03;31.60;52.60
24426;DHT22;12611;44.446;26.000;2022-08-30T15:34:32;31.50;52.70
24426;DHT22;12611;44.446;26.000;2022-08-30T15:37:03;31.50;52.80
24426;DHT22;12611;44.446;26.000;2022-08-30T15:39:34;31.50;52.90
24426;DHT22;12611;44.446;26.000;2022-08-30T15:42:03;31.50;53.00
24426;DHT22;12611;44.446;26.000;2022-08-30T15:44:32;31.40;53.10
24426;DHT22;12611;44.446;26.000;2022-08-30T15:47:02;31.40;53.30
24426;DHT22;12611;44.446;26.000;2022-08-30T15:49:31;31.30;53.30
24426;DHT22;12611;44.446;26.000;2022-08-30T15:52:02;31.30;53.30
24426;DHT22;12611;44.446;26.000;2022-08-30T15:54:33;31.30;53.40
24426;DHT22;12611;44.446;26.000;2022-08-30T15:57:02;31.20;53.50
24426;DHT22;12611;44.446;26.000;2022-08-30T15:59:31;31.20;53.60
24426;DHT22;12611;44.446;26.000;2022-08-30T16:02:04;31.20;53.70
24426;DHT22;12611;44.446;26.000;2022-08-30T16:04:33;31.10;53.70
24426;DHT22;12611;44.446;26.000;2022-08-30T16:07:02;31.10;53.90
24426;DHT22;12611;44.446;26.000;2022-08-30T16:09:35;31.10;54.00